Big Bear Station Historical Data
Daily Summary for March 08, 2018 Units:  Metric    English   Both
Next Day »
Daily Weekly Monthly Yearly Custom
  High: Low: Average:
Temperature: 13.5 °C -1.2 °C 5.3 °C
Dew Point: -1.6 °C -10.4 °C -5.6 °C
Humidity: 74% 20% 49%
Wind Speed: 11.7km/h 0km/h 2.3km/h
Wind Gust: -1607.7km/h - -
Wind- - West
Pressure: 797.4 hPa 795.4 hPa -
Precipitation: 0 mm    
Historical Graphs
 
 
Tabular Data for March 08, 2018
Time Temperature Dew Point Pressure Wind Wind Speed Wind Gust Humidity Rainfall Rate (Hourly)
00:08 0.3 °C -8.9 °C 796.7 hPa Calm   -1607.7 km/h 50% 0 mm
00:23 0.3 °C -9.2 °C 796.7 hPa Calm   -1607.7 km/h 49% 0 mm
00:38 0.1 °C -8.3 °C 796.7 hPa Calm   -1607.7 km/h 53% 0 mm
00:54 0.1 °C -8.3 °C 796.4 hPa Calm   -1607.7 km/h 53% 0 mm
01:09 0 °C -9.2 °C 796.4 hPa Calm   -1607.7 km/h 50% 0 mm
01:24 0.2 °C -9 °C 796.4 hPa Calm   -1607.7 km/h 50% 0 mm
01:39 -0.1 °C -9.3 °C 796.4 hPa Calm   -1607.7 km/h 50% 0 mm
01:54 -0.3 °C -8.2 °C 796.4 hPa Calm   -1607.7 km/h 55% 0 mm
02:10 -0.5 °C -10.4 °C 796.4 hPa Calm   -1607.7 km/h 47% 0 mm
02:25 -0.5 °C -8.9 °C 796 hPa Calm   -1607.7 km/h 53% 0 mm
02:40 -0.6 °C -6.6 °C 796.4 hPa Calm   -1607.7 km/h 64% 0 mm
02:55 -0.4 °C -6.2 °C 796 hPa Calm   -1607.7 km/h 65% 0 mm
03:11 -0.8 °C -7.4 °C 796 hPa Calm   -1607.7 km/h 61% 0 mm
03:26 -0.9 °C -7.7 °C 796 hPa Calm   -1607.7 km/h 60% 0 mm
03:41 -0.9 °C -10 °C 796 hPa Calm   -1607.7 km/h 50% 0 mm
03:56 -1.2 °C -9.3 °C 796 hPa Calm   -1607.7 km/h 54% 0 mm
04:11 -0.9 °C -8.3 °C 796 hPa Calm   -1607.7 km/h 57% 0 mm
04:27 -0.7 °C -8.9 °C 796 hPa Calm   -1607.7 km/h 54% 0 mm
04:42 -1.2 °C -8.7 °C 796 hPa Calm   -1607.7 km/h 57% 0 mm
04:57 -1.1 °C -7.4 °C 795.7 hPa Calm   -1607.7 km/h 62% 0 mm
05:12 -1 °C -6.2 °C 796 hPa Calm   -1607.7 km/h 68% 0 mm
05:27 -1.2 °C -6.4 °C 796 hPa Calm   -1607.7 km/h 68% 0 mm
05:43 -0.9 °C -5.7 °C 796 hPa Calm   -1607.7 km/h 70% 0 mm
05:58 -0.9 °C -6.1 °C 796 hPa Calm   -1607.7 km/h 68% 0 mm
06:13 -0.9 °C -5.5 °C 796 hPa Calm   -1607.7 km/h 71% 0 mm
06:28 -0.8 °C -5.2 °C 796 hPa Calm   -1607.7 km/h 72% 0 mm
06:43 -0.6 °C -5.6 °C 796.4 hPa Calm   -1607.7 km/h 69% 0 mm
06:59 -0.7 °C -5.9 °C 796.7 hPa Calm   -1607.7 km/h 68% 0 mm
07:14 -0.4 °C -5.2 °C 796.7 hPa Calm   -1607.7 km/h 70% 0 mm
07:29 0.7 °C -4.3 °C 796.7 hPa Calm   -1607.7 km/h 69% 0 mm
07:44 0.9 °C -3.9 °C 796.7 hPa Calm   -1607.7 km/h 70% 0 mm
07:59 1.1 °C -4.2 °C 796.7 hPa Calm   -1607.7 km/h 68% 0 mm
08:15 1.6 °C -3.8 °C 797.1 hPa Calm   -1607.7 km/h 67% 0 mm
08:31 2.2 °C -3.5 °C 797.1 hPa SSE 1.8 km/h -1607.7 km/h 66% 0 mm
08:46 3.8 °C -2.4 °C 797.1 hPa Calm   -1607.7 km/h 64% 0 mm
09:01 6 °C -3.1 °C 797.1 hPa Calm   -1607.7 km/h 52% 0 mm
09:16 7.8 °C -3.4 °C 797.1 hPa Calm   -1607.7 km/h 45% 0 mm
09:31 8.7 °C -2.3 °C 797.4 hPa NNW 3.5 km/h -1607.7 km/h 46% 0 mm
09:47 9.5 °C -2.4 °C 797.4 hPa NNW 6.8 km/h -1607.7 km/h 43% 0 mm
10:02 9.9 °C -2.1 °C 797.4 hPa NW 6.8 km/h -1607.7 km/h 43% 0 mm
10:17 9.5 °C -1.8 °C 797.4 hPa NW 5.1 km/h -1607.7 km/h 45% 0 mm
10:33 10.1 °C -1.6 °C 797.4 hPa NW 3.5 km/h -1607.7 km/h 44% 0 mm
10:48 11.5 °C -2.3 °C 797.4 hPa Calm   -1607.7 km/h 38% 0 mm
11:03 11.7 °C -2.9 °C 797.1 hPa NNW 7.6 km/h -1607.7 km/h 36% 0 mm
11:18 11.7 °C -3.2 °C 797.1 hPa NW 4.3 km/h -1607.7 km/h 35% 0 mm
11:33 12 °C -1.9 °C 797.1 hPa Calm   -1607.7 km/h 38% 0 mm
11:49 12.9 °C -2.6 °C 797.1 hPa NW 5.1 km/h -1607.7 km/h 34% 0 mm
12:04 12.9 °C -3 °C 796.7 hPa West 3.5 km/h -1607.7 km/h 33% 0 mm
12:19 13.5 °C -3.8 °C 796.7 hPa NNE 6 km/h -1607.7 km/h 30% 0 mm
12:34 13.2 °C -3.1 °C 796.7 hPa NW 4.3 km/h -1607.7 km/h 32% 0 mm
12:49 13.1 °C -8.2 °C 796.4 hPa NNW 4.3 km/h -1607.7 km/h 22% 0 mm
13:05 12.7 °C -5.3 °C 796 hPa NW 5.1 km/h -1607.7 km/h 28% 0 mm
13:20 13.5 °C -6.7 °C 796 hPa NNW 10.9 km/h -1607.7 km/h 24% 0 mm
13:35 12.7 °C -5.3 °C 796 hPa WNW 6 km/h -1607.7 km/h 28% 0 mm
13:51 12.5 °C -5.1 °C 795.7 hPa NW 7.6 km/h -1607.7 km/h 29% 0 mm
14:06 12.6 °C -6.9 °C 795.7 hPa NNW 11.7 km/h -1607.7 km/h 25% 0 mm
14:21 13.1 °C -9.4 °C 795.7 hPa NE 1.8 km/h -1607.7 km/h 20% 0 mm
14:36 12.9 °C -6.7 °C 795.7 hPa NW 8.5 km/h -1607.7 km/h 25% 0 mm
14:51 12.5 °C -4.6 °C 795.7 hPa WNW 9.3 km/h -1607.7 km/h 30% 0 mm
15:07 12.1 °C -4.6 °C 795.7 hPa NW 7.6 km/h -1607.7 km/h 31% 0 mm
15:22 12.1 °C -5.4 °C 795.7 hPa NW 8.5 km/h -1607.7 km/h 29% 0 mm
15:37 11.8 °C -3.6 °C 795.4 hPa NNW 8.5 km/h -1607.7 km/h 34% 0 mm
15:52 11.3 °C -3.7 °C 795.4 hPa WNW 9.3 km/h -1607.7 km/h 35% 0 mm
16:07 11.2 °C -6.2 °C 795.7 hPa NW 4.3 km/h -1607.7 km/h 29% 0 mm
16:23 11.5 °C -8.4 °C 795.4 hPa NW 10.9 km/h -1607.7 km/h 24% 0 mm
16:38 10.6 °C -8.1 °C 795.4 hPa Calm   -1607.7 km/h 26% 0 mm
16:53 10.2 °C -6.6 °C 795.4 hPa NW 1.8 km/h -1607.7 km/h 30% 0 mm
17:09 9.7 °C -7.1 °C 795.4 hPa Calm   -1607.7 km/h 30% 0 mm
17:24 9.3 °C -6.6 °C 795.4 hPa South 1.8 km/h -1607.7 km/h 32% 0 mm
17:39 8.9 °C -6.9 °C 795.4 hPa SSW 2.7 km/h -1607.7 km/h 32% 0 mm
17:54 8.5 °C -6.9 °C 795.4 hPa SSW 4.3 km/h -1607.7 km/h 33% 0 mm
18:09 8.3 °C -6.3 °C 795.4 hPa NW 8.5 km/h -1607.7 km/h 35% 0 mm
18:25 8 °C -6.6 °C 795.7 hPa WSW 2.7 km/h -1607.7 km/h 35% 0 mm
18:40 7.7 °C -6.4 °C 795.7 hPa Calm   -1607.7 km/h 36% 0 mm
18:57 7.5 °C -6.3 °C 795.7 hPa Calm   -1607.7 km/h 37% 0 mm
19:13 7.3 °C -6.8 °C 795.7 hPa NNW 2.7 km/h -1607.7 km/h 36% 0 mm
19:28 6.8 °C -6.6 °C 795.7 hPa South 1.8 km/h -1607.7 km/h 38% 0 mm
19:43 6.5 °C -4.9 °C 795.7 hPa NNE 2.7 km/h -1607.7 km/h 44% 0 mm
19:58 6.3 °C -4.2 °C 795.7 hPa Calm   -1607.7 km/h 47% 0 mm
20:14 6 °C -3.9 °C 796 hPa Calm   -1607.7 km/h 49% 0 mm
20:29 5.5 °C -3.8 °C 796 hPa Calm   -1607.7 km/h 51% 0 mm
20:45 5 °C -4.1 °C 796 hPa Calm   -1607.7 km/h 52% 0 mm
21:00 4.5 °C -3.8 °C 796 hPa Calm   -1607.7 km/h 55% 0 mm
21:15 3.8 °C -3.9 °C 796 hPa Calm   -1607.7 km/h 57% 0 mm
21:30 3.4 °C -3.7 °C 796 hPa SSE 1.8 km/h -1607.7 km/h 60% 0 mm
21:45 2.9 °C -3.7 °C 796 hPa Calm   -1607.7 km/h 62% 0 mm
22:01 2.4 °C -3.7 °C 796 hPa Calm   -1607.7 km/h 64% 0 mm
22:16 1.9 °C -4.2 °C 795.7 hPa Calm   -1607.7 km/h 64% 0 mm
22:31 1.5 °C -3.9 °C 795.7 hPa Calm   -1607.7 km/h 67% 0 mm
22:46 1.3 °C -4 °C 795.7 hPa Calm   -1607.7 km/h 68% 0 mm
23:01 1.1 °C -3.8 °C 795.4 hPa Calm   -1607.7 km/h 70% 0 mm
23:17 0.9 °C -3.8 °C 795.4 hPa North 2.7 km/h -1607.7 km/h 71% 0 mm
23:32 0.7 °C -3.6 °C 795.4 hPa Calm   -1607.7 km/h 73% 0 mm
23:47 0.8 °C -3.3 °C 795.4 hPa Calm   -1607.7 km/h 74% 0 mm
Big Bear CA Weather